sensor_id;sensor_type;location;lat;lon;timestamp;P1;durP1;ratioP1;P2;durP2;ratioP2
5454;SDS011;2750;49.050;9.250;2023-02-22T00:00:40;20.63;;;12.63;;
5454;SDS011;2750;49.050;9.250;2023-02-22T00:05:43;18.23;;;11.47;;
5454;SDS011;2750;49.050;9.250;2023-02-22T00:10:46;20.50;;;13.53;;
5454;SDS011;2750;49.050;9.250;2023-02-22T00:15:51;22.00;;;13.83;;
5454;SDS011;2750;49.050;9.250;2023-02-22T00:20:53;18.43;;;12.57;;
5454;SDS011;2750;49.050;9.250;2023-02-22T00:25:55;15.80;;;11.23;;
5454;SDS011;2750;49.050;9.250;2023-02-22T00:30:59;17.57;;;11.53;;
5454;SDS011;2750;49.050;9.250;2023-02-22T00:36:01;30.77;;;20.27;;
5454;SDS011;2750;49.050;9.250;2023-02-22T00:41:02;19.30;;;12.57;;
5454;SDS011;2750;49.050;9.250;2023-02-22T00:46:06;19.00;;;11.50;;
5454;SDS011;2750;49.050;9.250;2023-02-22T00:51:07;24.83;;;14.67;;
5454;SDS011;2750;49.050;9.250;2023-02-22T00:56:09;40.83;;;19.43;;
5454;SDS011;2750;49.050;9.250;2023-02-22T01:01:12;28.57;;;15.43;;
5454;SDS011;2750;49.050;9.250;2023-02-22T01:06:13;51.90;;;24.60;;
5454;SDS011;2750;49.050;9.250;2023-02-22T01:11:16;45.80;;;21.73;;
5454;SDS011;2750;49.050;9.250;2023-02-22T01:16:19;17.63;;;11.63;;
5454;SDS011;2750;49.050;9.250;2023-02-22T01:21:21;21.37;;;11.70;;
5454;SDS011;2750;49.050;9.250;2023-02-22T01:26:22;17.83;;;11.33;;
5454;SDS011;2750;49.050;9.250;2023-02-22T01:31:26;15.30;;;10.40;;
5454;SDS011;2750;49.050;9.250;2023-02-22T01:36:28;20.20;;;11.20;;
5454;SDS011;2750;49.050;9.250;2023-02-22T01:41:30;17.40;;;9.17;;
5454;SDS011;2750;49.050;9.250;2023-02-22T01:46:33;15.77;;;9.77;;
5454;SDS011;2750;49.050;9.250;2023-02-22T01:51:35;13.27;;;8.77;;
5454;SDS011;2750;49.050;9.250;2023-02-22T01:56:40;12.90;;;8.37;;
5454;SDS011;2750;49.050;9.250;2023-02-22T02:01:49;12.77;;;9.13;;
5454;SDS011;2750;49.050;9.250;2023-02-22T02:06:50;15.33;;;8.40;;
5454;SDS011;2750;49.050;9.250;2023-02-22T02:11:53;14.90;;;8.20;;
5454;SDS011;2750;49.050;9.250;2023-02-22T02:16:56;11.07;;;8.60;;
5454;SDS011;2750;49.050;9.250;2023-02-22T02:22:07;15.10;;;9.10;;
5454;SDS011;2750;49.050;9.250;2023-02-22T02:27:18;11.50;;;7.77;;
5454;SDS011;2750;49.050;9.250;2023-02-22T02:32:28;14.60;;;7.20;;
5454;SDS011;2750;49.050;9.250;2023-02-22T02:37:36;11.53;;;7.23;;
5454;SDS011;2750;49.050;9.250;2023-02-22T02:42:48;13.43;;;8.07;;
5454;SDS011;2750;49.050;9.250;2023-02-22T02:47:56;9.50;;;7.47;;
5454;SDS011;2750;49.050;9.250;2023-02-22T02:53:03;12.43;;;8.30;;
5454;SDS011;2750;49.050;9.250;2023-02-22T02:58:10;11.90;;;7.53;;
5454;SDS011;2750;49.050;9.250;2023-02-22T03:03:24;13.10;;;7.60;;
5454;SDS011;2750;49.050;9.250;2023-02-22T03:08:40;12.40;;;7.73;;
5454;SDS011;2750;49.050;9.250;2023-02-22T03:13:49;10.53;;;7.00;;
5454;SDS011;2750;49.050;9.250;2023-02-22T03:18:57;13.40;;;7.73;;
5454;SDS011;2750;49.050;9.250;2023-02-22T03:24:08;9.97;;;6.97;;
5454;SDS011;2750;49.050;9.250;2023-02-22T03:29:17;14.67;;;8.23;;
5454;SDS011;2750;49.050;9.250;2023-02-22T03:34:25;12.07;;;7.47;;
5454;SDS011;2750;49.050;9.250;2023-02-22T03:39:29;10.87;;;8.10;;
5454;SDS011;2750;49.050;9.250;2023-02-22T03:44:32;9.47;;;7.37;;
5454;SDS011;2750;49.050;9.250;2023-02-22T03:49:39;10.60;;;7.17;;
5454;SDS011;2750;49.050;9.250;2023-02-22T03:54:46;9.27;;;6.10;;
5454;SDS011;2750;49.050;9.250;2023-02-22T03:59:47;7.57;;;6.33;;
5454;SDS011;2750;49.050;9.250;2023-02-22T04:04:51;8.00;;;5.60;;
5454;SDS011;2750;49.050;9.250;2023-02-22T04:09:52;8.10;;;5.80;;
5454;SDS011;2750;49.050;9.250;2023-02-22T04:14:54;10.07;;;5.23;;
5454;SDS011;2750;49.050;9.250;2023-02-22T04:19:57;6.73;;;5.30;;
5454;SDS011;2750;49.050;9.250;2023-02-22T04:24:58;8.57;;;5.40;;
5454;SDS011;2750;49.050;9.250;2023-02-22T04:30:00;6.23;;;5.07;;
5454;SDS011;2750;49.050;9.250;2023-02-22T04:35:03;10.70;;;5.70;;
5454;SDS011;2750;49.050;9.250;2023-02-22T04:40:06;10.77;;;6.23;;
5454;SDS011;2750;49.050;9.250;2023-02-22T04:45:10;12.13;;;7.83;;
5454;SDS011;2750;49.050;9.250;2023-02-22T04:50:15;10.57;;;7.13;;
5454;SDS011;2750;49.050;9.250;2023-02-22T04:55:18;11.63;;;7.93;;
5454;SDS011;2750;49.050;9.250;2023-02-22T05:00:20;13.33;;;8.70;;
5454;SDS011;2750;49.050;9.250;2023-02-22T05:05:23;10.83;;;8.40;;
5454;SDS011;2750;49.050;9.250;2023-02-22T05:10:24;13.30;;;7.63;;
5454;SDS011;2750;49.050;9.250;2023-02-22T05:15:26;11.10;;;8.00;;
5454;SDS011;2750;49.050;9.250;2023-02-22T05:20:30;10.23;;;7.53;;
5454;SDS011;2750;49.050;9.250;2023-02-22T05:25:33;12.17;;;7.27;;
5454;SDS011;2750;49.050;9.250;2023-02-22T05:30:35;9.07;;;7.40;;
5454;SDS011;2750;49.050;9.250;2023-02-22T05:35:39;10.63;;;7.50;;
5454;SDS011;2750;49.050;9.250;2023-02-22T05:40:41;10.87;;;7.47;;
5454;SDS011;2750;49.050;9.250;2023-02-22T05:45:44;12.70;;;8.03;;
5454;SDS011;2750;49.050;9.250;2023-02-22T05:50:47;12.90;;;8.77;;
5454;SDS011;2750;49.050;9.250;2023-02-22T05:55:49;13.27;;;7.50;;
5454;SDS011;2750;49.050;9.250;2023-02-22T06:00:51;11.00;;;7.67;;
5454;SDS011;2750;49.050;9.250;2023-02-22T06:05:54;16.20;;;9.47;;
5454;SDS011;2750;49.050;9.250;2023-02-22T06:10:55;15.97;;;10.40;;
5454;SDS011;2750;49.050;9.250;2023-02-22T06:15:57;16.83;;;10.40;;
5454;SDS011;2750;49.050;9.250;2023-02-22T06:21:00;14.97;;;9.80;;
5454;SDS011;2750;49.050;9.250;2023-02-22T06:26:01;14.77;;;9.33;;
5454;SDS011;2750;49.050;9.250;2023-02-22T06:31:03;15.27;;;9.97;;
5454;SDS011;2750;49.050;9.250;2023-02-22T06:36:07;19.17;;;9.87;;
5454;SDS011;2750;49.050;9.250;2023-02-22T06:41:09;17.30;;;11.57;;
5454;SDS011;2750;49.050;9.250;2023-02-22T06:46:11;19.10;;;12.33;;
5454;SDS011;2750;49.050;9.250;2023-02-22T06:51:14;16.87;;;13.23;;
5454;SDS011;2750;49.050;9.250;2023-02-22T06:56:16;15.77;;;10.90;;
5454;SDS011;2750;49.050;9.250;2023-02-22T07:01:18;18.87;;;13.03;;
5454;SDS011;2750;49.050;9.250;2023-02-22T07:06:21;15.30;;;12.17;;
5454;SDS011;2750;49.050;9.250;2023-02-22T07:11:23;21.77;;;12.63;;
5454;SDS011;2750;49.050;9.250;2023-02-22T07:16:24;21.03;;;11.77;;
5454;SDS011;2750;49.050;9.250;2023-02-22T07:21:27;15.30;;;10.93;;
5454;SDS011;2750;49.050;9.250;2023-02-22T07:26:29;15.73;;;10.37;;
5454;SDS011;2750;49.050;9.250;2023-02-22T07:31:33;17.17;;;10.73;;
5454;SDS011;2750;49.050;9.250;2023-02-22T07:36:37;14.87;;;10.17;;
5454;SDS011;2750;49.050;9.250;2023-02-22T07:41:38;18.70;;;10.47;;
5454;SDS011;2750;49.050;9.250;2023-02-22T07:46:40;15.53;;;10.00;;
5454;SDS011;2750;49.050;9.250;2023-02-22T07:51:43;17.10;;;9.53;;
5454;SDS011;2750;49.050;9.250;2023-02-22T07:56:44;12.60;;;9.27;;
5454;SDS011;2750;49.050;9.250;2023-02-22T08:01:47;16.57;;;10.40;;
5454;SDS011;2750;49.050;9.250;2023-02-22T08:06:51;16.87;;;11.27;;
5454;SDS011;2750;49.050;9.250;2023-02-22T08:11:52;14.17;;;11.80;;
5454;SDS011;2750;49.050;9.250;2023-02-22T08:16:54;13.27;;;11.83;;
5454;SDS011;2750;49.050;9.250;2023-02-22T08:21:57;20.77;;;13.63;;
5454;SDS011;2750;49.050;9.250;2023-02-22T08:26:59;21.10;;;13.63;;
5454;SDS011;2750;49.050;9.250;2023-02-22T08:32:00;16.60;;;13.07;;
5454;SDS011;2750;49.050;9.250;2023-02-22T08:37:04;17.23;;;14.40;;
5454;SDS011;2750;49.050;9.250;2023-02-22T08:42:05;15.73;;;11.93;;
5454;SDS011;2750;49.050;9.250;2023-02-22T08:47:08;12.37;;;11.07;;
5454;SDS011;2750;49.050;9.250;2023-02-22T08:52:11;13.57;;;11.10;;
5454;SDS011;2750;49.050;9.250;2023-02-22T08:57:13;14.83;;;11.63;;
5454;SDS011;2750;49.050;9.250;2023-02-22T09:02:16;13.47;;;11.27;;
5454;SDS011;2750;49.050;9.250;2023-02-22T09:07:20;11.77;;;10.03;;
5454;SDS011;2750;49.050;9.250;2023-02-22T09:12:22;13.37;;;10.87;;
5454;SDS011;2750;49.050;9.250;2023-02-22T09:17:23;14.83;;;11.23;;
5454;SDS011;2750;49.050;9.250;2023-02-22T09:22:26;14.73;;;11.13;;
5454;SDS011;2750;49.050;9.250;2023-02-22T09:27:28;15.53;;;10.50;;
5454;SDS011;2750;49.050;9.250;2023-02-22T09:32:29;12.67;;;10.83;;
5454;SDS011;2750;49.050;9.250;2023-02-22T09:37:32;11.23;;;10.07;;
5454;SDS011;2750;49.050;9.250;2023-02-22T09:42:35;13.23;;;10.03;;
5454;SDS011;2750;49.050;9.250;2023-02-22T09:47:46;23.27;;;10.93;;
5454;SDS011;2750;49.050;9.250;2023-02-22T09:52:57;13.23;;;10.90;;
5454;SDS011;2750;49.050;9.250;2023-02-22T09:58:05;13.07;;;10.40;;
5454;SDS011;2750;49.050;9.250;2023-02-22T10:03:16;11.87;;;10.07;;
5454;SDS011;2750;49.050;9.250;2023-02-22T10:08:25;10.53;;;8.57;;
5454;SDS011;2750;49.050;9.250;2023-02-22T10:13:31;11.57;;;9.87;;
5454;SDS011;2750;49.050;9.250;2023-02-22T10:18:47;11.83;;;9.23;;
5454;SDS011;2750;49.050;9.250;2023-02-22T10:23:58;12.37;;;10.20;;
5454;SDS011;2750;49.050;9.250;2023-02-22T10:29:11;10.40;;;8.87;;
5454;SDS011;2750;49.050;9.250;2023-02-22T10:34:22;10.60;;;9.17;;
5454;SDS011;2750;49.050;9.250;2023-02-22T10:39:29;11.10;;;9.57;;
5454;SDS011;2750;49.050;9.250;2023-02-22T10:44:32;13.87;;;9.90;;
5454;SDS011;2750;49.050;9.250;2023-02-22T10:49:35;14.03;;;10.03;;
5454;SDS011;2750;49.050;9.250;2023-02-22T10:54:41;10.00;;;8.83;;
5454;SDS011;2750;49.050;9.250;2023-02-22T10:59:48;14.30;;;9.87;;
5454;SDS011;2750;49.050;9.250;2023-02-22T11:04:51;14.20;;;10.27;;
5454;SDS011;2750;49.050;9.250;2023-02-22T11:09:56;10.37;;;9.23;;
5454;SDS011;2750;49.050;9.250;2023-02-22T11:15:22;12.47;;;10.27;;
5454;SDS011;2750;49.050;9.250;2023-02-22T11:20:29;14.13;;;9.87;;
5454;SDS011;2750;49.050;9.250;2023-02-22T11:25:36;12.40;;;9.37;;
5454;SDS011;2750;49.050;9.250;2023-02-22T11:30:41;10.60;;;8.77;;
5454;SDS011;2750;49.050;9.250;2023-02-22T11:35:48;11.07;;;8.87;;
5454;SDS011;2750;49.050;9.250;2023-02-22T11:41:09;11.10;;;9.60;;
5454;SDS011;2750;49.050;9.250;2023-02-22T11:46:15;14.03;;;9.87;;
5454;SDS011;2750;49.050;9.250;2023-02-22T11:51:28;12.87;;;10.00;;
5454;SDS011;2750;49.050;9.250;2023-02-22T11:56:41;16.20;;;10.80;;
5454;SDS011;2750;49.050;9.250;2023-02-22T12:01:48;13.77;;;10.93;;
5454;SDS011;2750;49.050;9.250;2023-02-22T12:06:56;15.23;;;10.93;;
5454;SDS011;2750;49.050;9.250;2023-02-22T12:12:12;12.37;;;10.33;;
5454;SDS011;2750;49.050;9.250;2023-02-22T12:17:29;14.50;;;11.60;;
5454;SDS011;2750;49.050;9.250;2023-02-22T12:22:42;14.80;;;11.53;;
5454;SDS011;2750;49.050;9.250;2023-02-22T12:27:54;15.10;;;11.50;;
5454;SDS011;2750;49.050;9.250;2023-02-22T12:32:59;13.40;;;11.40;;
5454;SDS011;2750;49.050;9.250;2023-02-22T12:38:07;14.50;;;11.37;;
5454;SDS011;2750;49.050;9.250;2023-02-22T12:43:17;15.97;;;12.37;;
5454;SDS011;2750;49.050;9.250;2023-02-22T12:48:25;13.90;;;11.67;;
5454;SDS011;2750;49.050;9.250;2023-02-22T12:53:36;15.50;;;12.30;;
5454;SDS011;2750;49.050;9.250;2023-02-22T12:58:43;13.97;;;11.73;;
5454;SDS011;2750;49.050;9.250;2023-02-22T13:03:49;15.63;;;12.10;;
5454;SDS011;2750;49.050;9.250;2023-02-22T13:08:59;13.60;;;12.17;;
5454;SDS011;2750;49.050;9.250;2023-02-22T13:14:15;13.83;;;11.93;;
5454;SDS011;2750;49.050;9.250;2023-02-22T13:19:33;18.37;;;12.50;;
5454;SDS011;2750;49.050;9.250;2023-02-22T13:24:44;13.67;;;11.53;;
5454;SDS011;2750;49.050;9.250;2023-02-22T13:29:55;15.83;;;12.00;;
5454;SDS011;2750;49.050;9.250;2023-02-22T13:35:00;18.30;;;12.30;;
5454;SDS011;2750;49.050;9.250;2023-02-22T13:40:25;14.37;;;12.87;;
5454;SDS011;2750;49.050;9.250;2023-02-22T13:45:47;17.13;;;13.13;;
5454;SDS011;2750;49.050;9.250;2023-02-22T13:51:08;14.70;;;11.83;;
5454;SDS011;2750;49.050;9.250;2023-02-22T13:56:14;15.87;;;12.47;;
5454;SDS011;2750;49.050;9.250;2023-02-22T14:01:37;12.90;;;11.50;;
5454;SDS011;2750;49.050;9.250;2023-02-22T14:06:40;17.33;;;13.03;;
5454;SDS011;2750;49.050;9.250;2023-02-22T14:11:42;16.07;;;11.37;;
5454;SDS011;2750;49.050;9.250;2023-02-22T14:17:14;14.70;;;12.60;;
5454;SDS011;2750;49.050;9.250;2023-02-22T14:22:23;16.67;;;11.60;;
5454;SDS011;2750;49.050;9.250;2023-02-22T14:27:37;13.47;;;11.60;;
5454;SDS011;2750;49.050;9.250;2023-02-22T14:32:41;17.87;;;11.30;;
5454;SDS011;2750;49.050;9.250;2023-02-22T14:37:43;13.50;;;12.00;;
5454;SDS011;2750;49.050;9.250;2023-02-22T14:42:51;13.53;;;11.77;;
5454;SDS011;2750;49.050;9.250;2023-02-22T14:48:05;15.90;;;11.13;;
5454;SDS011;2750;49.050;9.250;2023-02-22T14:53:17;16.17;;;11.87;;
5454;SDS011;2750;49.050;9.250;2023-02-22T14:58:24;17.60;;;11.27;;
5454;SDS011;2750;49.050;9.250;2023-02-22T15:03:35;14.27;;;10.40;;
5454;SDS011;2750;49.050;9.250;2023-02-22T15:08:37;14.63;;;10.87;;
5454;SDS011;2750;49.050;9.250;2023-02-22T15:13:47;14.50;;;11.37;;
5454;SDS011;2750;49.050;9.250;2023-02-22T15:18:52;16.63;;;10.80;;
5454;SDS011;2750;49.050;9.250;2023-02-22T15:23:57;14.43;;;11.27;;
5454;SDS011;2750;49.050;9.250;2023-02-22T15:29:06;14.03;;;10.77;;
5454;SDS011;2750;49.050;9.250;2023-02-22T15:34:16;15.50;;;11.50;;
5454;SDS011;2750;49.050;9.250;2023-02-22T15:39:24;16.40;;;11.47;;
5454;SDS011;2750;49.050;9.250;2023-02-22T15:44:28;17.47;;;14.17;;
5454;SDS011;2750;49.050;9.250;2023-02-22T15:49:36;17.30;;;13.33;;
5454;SDS011;2750;49.050;9.250;2023-02-22T15:54:39;16.17;;;12.67;;
5454;SDS011;2750;49.050;9.250;2023-02-22T15:59:43;18.33;;;11.97;;
5454;SDS011;2750;49.050;9.250;2023-02-22T16:04:49;15.83;;;12.07;;
5454;SDS011;2750;49.050;9.250;2023-02-22T16:09:58;14.47;;;12.17;;
5454;SDS011;2750;49.050;9.250;2023-02-22T16:15:13;15.80;;;13.03;;
5454;SDS011;2750;49.050;9.250;2023-02-22T16:20:30;17.63;;;11.67;;
5454;SDS011;2750;49.050;9.250;2023-02-22T16:25:35;16.10;;;12.83;;
5454;SDS011;2750;49.050;9.250;2023-02-22T16:30:38;22.73;;;17.20;;
5454;SDS011;2750;49.050;9.250;2023-02-22T16:35:41;20.13;;;14.80;;
5454;SDS011;2750;49.050;9.250;2023-02-22T16:40:51;18.00;;;13.73;;
5454;SDS011;2750;49.050;9.250;2023-02-22T16:45:54;22.97;;;16.00;;
5454;SDS011;2750;49.050;9.250;2023-02-22T16:50:57;22.50;;;17.13;;
5454;SDS011;2750;49.050;9.250;2023-02-22T16:56:01;16.50;;;11.57;;
5454;SDS011;2750;49.050;9.250;2023-02-22T17:01:05;16.20;;;11.27;;
5454;SDS011;2750;49.050;9.250;2023-02-22T17:06:08;14.33;;;11.87;;
5454;SDS011;2750;49.050;9.250;2023-02-22T17:11:11;17.10;;;10.50;;
5454;SDS011;2750;49.050;9.250;2023-02-22T17:16:14;14.77;;;10.70;;
5454;SDS011;2750;49.050;9.250;2023-02-22T17:21:17;19.37;;;14.93;;
5454;SDS011;2750;49.050;9.250;2023-02-22T17:26:18;14.80;;;12.67;;
5454;SDS011;2750;49.050;9.250;2023-02-22T17:31:20;21.00;;;15.77;;
5454;SDS011;2750;49.050;9.250;2023-02-22T17:36:25;19.77;;;16.17;;
5454;SDS011;2750;49.050;9.250;2023-02-22T17:41:26;14.97;;;10.30;;
5454;SDS011;2750;49.050;9.250;2023-02-22T17:46:28;15.87;;;13.10;;
5454;SDS011;2750;49.050;9.250;2023-02-22T17:51:31;18.73;;;13.00;;
5454;SDS011;2750;49.050;9.250;2023-02-22T17:56:33;19.37;;;15.27;;
5454;SDS011;2750;49.050;9.250;2023-02-22T18:01:34;18.90;;;13.87;;
5454;SDS011;2750;49.050;9.250;2023-02-22T18:06:37;21.30;;;15.30;;
5454;SDS011;2750;49.050;9.250;2023-02-22T18:11:39;18.43;;;16.00;;
5454;SDS011;2750;49.050;9.250;2023-02-22T18:16:40;28.10;;;21.33;;
5454;SDS011;2750;49.050;9.250;2023-02-22T18:21:43;20.27;;;14.97;;
5454;SDS011;2750;49.050;9.250;2023-02-22T18:26:45;25.13;;;18.40;;
5454;SDS011;2750;49.050;9.250;2023-02-22T18:31:46;20.27;;;15.57;;
5454;SDS011;2750;49.050;9.250;2023-02-22T18:36:49;19.93;;;14.10;;
5454;SDS011;2750;49.050;9.250;2023-02-22T18:41:51;18.33;;;13.50;;
5454;SDS011;2750;49.050;9.250;2023-02-22T18:46:53;17.83;;;13.57;;
5454;SDS011;2750;49.050;9.250;2023-02-22T18:51:56;18.80;;;12.50;;
5454;SDS011;2750;49.050;9.250;2023-02-22T18:56:58;20.47;;;14.47;;
5454;SDS011;2750;49.050;9.250;2023-02-22T19:02:00;29.53;;;19.40;;
5454;SDS011;2750;49.050;9.250;2023-02-22T19:07:03;25.67;;;20.53;;
5454;SDS011;2750;49.050;9.250;2023-02-22T19:12:05;24.33;;;17.07;;
5454;SDS011;2750;49.050;9.250;2023-02-22T19:17:07;31.17;;;21.37;;
5454;SDS011;2750;49.050;9.250;2023-02-22T19:22:10;26.07;;;21.53;;
5454;SDS011;2750;49.050;9.250;2023-02-22T19:27:14;23.70;;;18.07;;
5454;SDS011;2750;49.050;9.250;2023-02-22T19:32:15;25.13;;;18.40;;
5454;SDS011;2750;49.050;9.250;2023-02-22T19:37:18;23.43;;;17.27;;
5454;SDS011;2750;49.050;9.250;2023-02-22T19:42:21;23.63;;;16.63;;
5454;SDS011;2750;49.050;9.250;2023-02-22T19:47:23;28.23;;;18.10;;
5454;SDS011;2750;49.050;9.250;2023-02-22T19:52:26;26.10;;;16.90;;
5454;SDS011;2750;49.050;9.250;2023-02-22T19:57:28;22.63;;;17.33;;
5454;SDS011;2750;49.050;9.250;2023-02-22T20:02:30;37.07;;;27.53;;
5454;SDS011;2750;49.050;9.250;2023-02-22T20:07:33;34.53;;;23.23;;
5454;SDS011;2750;49.050;9.250;2023-02-22T20:12:34;29.63;;;20.07;;
5454;SDS011;2750;49.050;9.250;2023-02-22T20:17:36;26.77;;;19.47;;
5454;SDS011;2750;49.050;9.250;2023-02-22T20:22:39;27.87;;;20.30;;
5454;SDS011;2750;49.050;9.250;2023-02-22T20:27:41;24.77;;;17.97;;
5454;SDS011;2750;49.050;9.250;2023-02-22T20:32:42;27.93;;;20.43;;
5454;SDS011;2750;49.050;9.250;2023-02-22T20:37:45;26.10;;;18.63;;
5454;SDS011;2750;49.050;9.250;2023-02-22T20:42:47;24.00;;;17.33;;
5454;SDS011;2750;49.050;9.250;2023-02-22T20:47:49;24.93;;;17.80;;
5454;SDS011;2750;49.050;9.250;2023-02-22T20:52:52;26.80;;;17.97;;
5454;SDS011;2750;49.050;9.250;2023-02-22T20:57:53;24.47;;;18.80;;
5454;SDS011;2750;49.050;9.250;2023-02-22T21:02:55;29.57;;;20.23;;
5454;SDS011;2750;49.050;9.250;2023-02-22T21:07:58;24.47;;;19.13;;
5454;SDS011;2750;49.050;9.250;2023-02-22T21:13:02;24.73;;;17.30;;
5454;SDS011;2750;49.050;9.250;2023-02-22T21:18:03;22.93;;;17.20;;
5454;SDS011;2750;49.050;9.250;2023-02-22T21:23:07;25.40;;;19.30;;
5454;SDS011;2750;49.050;9.250;2023-02-22T21:28:10;33.27;;;21.90;;
5454;SDS011;2750;49.050;9.250;2023-02-22T21:33:11;34.67;;;22.47;;
5454;SDS011;2750;49.050;9.250;2023-02-22T21:38:16;29.67;;;20.13;;
5454;SDS011;2750;49.050;9.250;2023-02-22T21:43:19;31.00;;;21.27;;
5454;SDS011;2750;49.050;9.250;2023-02-22T21:48:21;29.40;;;21.00;;
5454;SDS011;2750;49.050;9.250;2023-02-22T21:53:26;37.47;;;25.27;;
5454;SDS011;2750;49.050;9.250;2023-02-22T21:58:28;36.23;;;24.70;;
5454;SDS011;2750;49.050;9.250;2023-02-22T22:03:30;37.00;;;27.23;;
5454;SDS011;2750;49.050;9.250;2023-02-22T22:08:33;40.23;;;26.67;;
5454;SDS011;2750;49.050;9.250;2023-02-22T22:13:40;37.00;;;26.23;;
5454;SDS011;2750;49.050;9.250;2023-02-22T22:18:43;38.00;;;26.30;;
5454;SDS011;2750;49.050;9.250;2023-02-22T22:23:47;34.50;;;27.67;;
5454;SDS011;2750;49.050;9.250;2023-02-22T22:28:54;37.93;;;26.43;;
5454;SDS011;2750;49.050;9.250;2023-02-22T22:33:58;34.40;;;24.87;;
5454;SDS011;2750;49.050;9.250;2023-02-22T22:39:02;34.80;;;26.07;;
5454;SDS011;2750;49.050;9.250;2023-02-22T22:44:12;33.30;;;24.57;;
5454;SDS011;2750;49.050;9.250;2023-02-22T22:49:15;42.90;;;27.33;;
5454;SDS011;2750;49.050;9.250;2023-02-22T22:54:18;38.30;;;26.50;;
5454;SDS011;2750;49.050;9.250;2023-02-22T22:59:20;38.30;;;26.40;;
5454;SDS011;2750;49.050;9.250;2023-02-22T23:04:21;33.67;;;26.07;;
5454;SDS011;2750;49.050;9.250;2023-02-22T23:09:27;36.83;;;25.07;;
5454;SDS011;2750;49.050;9.250;2023-02-22T23:14:30;35.23;;;25.13;;
5454;SDS011;2750;49.050;9.250;2023-02-22T23:19:32;39.03;;;26.73;;
5454;SDS011;2750;49.050;9.250;2023-02-22T23:24:37;36.03;;;24.77;;
5454;SDS011;2750;49.050;9.250;2023-02-22T23:29:40;36.90;;;26.07;;
5454;SDS011;2750;49.050;9.250;2023-02-22T23:34:45;36.90;;;24.07;;
5454;SDS011;2750;49.050;9.250;2023-02-22T23:39:49;39.60;;;28.07;;
5454;SDS011;2750;49.050;9.250;2023-02-22T23:44:51;52.87;;;30.40;;
5454;SDS011;2750;49.050;9.250;2023-02-22T23:49:53;40.60;;;29.57;;
5454;SDS011;2750;49.050;9.250;2023-02-22T23:54:55;37.03;;;26.97;;
5454;SDS011;2750;49.050;9.250;2023-02-22T23:59:57;40.70;;;27.17;;
